createdAt,value
2018-02-21T00:02:02.987Z,55.80
2018-02-21T00:04:32.642Z,57.15
2018-02-21T00:07:01.206Z,60.25
2018-02-21T00:19:12.962Z,55.15
2018-02-21T00:21:44.416Z,58.33
2018-02-21T00:24:12.405Z,58.70
2018-02-21T00:26:40.004Z,54.80
2018-02-21T00:29:14.952Z,52.53
2018-02-21T00:31:46.182Z,56.05
2018-02-21T00:34:13.044Z,64.40
2018-02-21T00:36:45.936Z,57.33
2018-02-21T00:39:12.699Z,56.08
2018-02-21T00:41:39.420Z,60.97
2018-02-21T00:44:10.557Z,61.65
2018-02-21T00:46:37.294Z,62.30
2018-02-21T00:49:03.941Z,53.13
2018-02-21T00:51:41.853Z,59.75
2018-02-21T00:54:23.362Z,59.45
2018-02-21T00:56:50.378Z,58.95
2018-02-21T00:59:17.309Z,62.50
2018-02-21T01:01:44.636Z,61.65
2018-02-21T01:04:19.604Z,62.97
2018-02-21T01:06:47.212Z,68.12
2018-02-21T01:09:30.080Z,64.22
2018-02-21T01:12:01.748Z,67.30
2018-02-21T01:14:31.082Z,62.40
2018-02-21T01:16:58.284Z,64.95
2018-02-21T01:19:25.013Z,63.30
2018-02-21T01:21:51.736Z,62.10
2018-02-21T01:24:19.605Z,69.95
2018-02-21T01:26:46.650Z,61.85
2018-02-21T01:29:14.199Z,58.95
2018-02-21T01:31:41.839Z,72.85
2018-02-21T01:34:10.143Z,67.85
2018-02-21T01:36:49.546Z,63.47
2018-02-21T01:39:23.102Z,64.00
2018-02-21T01:41:54.733Z,60.63
2018-02-21T01:44:27.595Z,69.10
2018-02-21T01:46:58.163Z,62.47
2018-02-21T01:49:29.150Z,64.18
2018-02-21T01:52:01.274Z,62.25
2018-02-21T01:54:34.493Z,71.37
2018-02-21T01:57:02.927Z,62.00
2018-02-21T01:59:32.698Z,66.87
2018-02-21T02:02:03.927Z,69.85
2018-02-21T02:04:30.766Z,64.93
2018-02-21T02:06:58.087Z,64.15
2018-02-21T02:09:30.801Z,68.90
2018-02-21T02:12:00.914Z,67.85
2018-02-21T02:14:28.270Z,62.28
2018-02-21T02:16:55.803Z,61.97
2018-02-21T02:19:23.873Z,62.47
2018-02-21T02:22:00.323Z,63.13
2018-02-21T02:24:29.260Z,67.43
2018-02-21T02:27:00.060Z,63.87
2018-02-21T02:29:34.880Z,58.25
2018-02-21T02:32:08.793Z,73.50
2018-02-21T02:34:42.460Z,67.37
2018-02-21T02:37:15.038Z,69.62
2018-02-21T02:40:03.427Z,70.12
2018-02-21T02:42:34.237Z,61.35
2018-02-21T02:45:02.577Z,63.38
2018-02-21T02:47:33.053Z,72.43
2018-02-21T02:50:06.250Z,68.55
2018-02-21T02:52:40.364Z,67.70
2018-02-21T02:58:04.707Z,66.75
2018-02-21T03:00:35.386Z,66.95
2018-02-21T03:03:03.102Z,66.95
2018-02-21T03:05:34.097Z,66.85
2018-02-21T03:08:09.548Z,69.32
2018-02-21T03:10:40.738Z,69.80
2018-02-21T03:13:12.479Z,65.70
2018-02-21T03:15:53.063Z,71.70
2018-02-21T03:18:19.837Z,69.00
2018-02-21T03:20:50.272Z,71.80
2018-02-21T03:23:23.074Z,67.55
2018-02-21T03:25:50.734Z,79.55
2018-02-21T03:28:17.661Z,72.25
2018-02-21T03:30:49.314Z,78.68
2018-02-21T03:33:20.621Z,76.47
2018-02-21T03:45:37.153Z,66.32
2018-02-21T03:48:13.655Z,72.32
2018-02-21T03:50:44.700Z,74.20
2018-02-21T03:53:11.556Z,71.03
2018-02-21T03:55:38.273Z,70.03
2018-02-21T03:58:04.940Z,69.25
2018-02-21T04:00:32.340Z,70.30
2018-02-21T04:02:59.011Z,63.35
2018-02-21T04:05:33.043Z,77.43
2018-02-21T04:08:07.323Z,63.13
2018-02-21T04:10:34.590Z,60.03
2018-02-21T04:13:16.809Z,60.85
2018-02-21T04:15:48.799Z,67.82
2018-02-21T04:18:22.217Z,57.97
2018-02-21T04:20:51.622Z,63.15
2018-02-21T04:23:18.431Z,62.50
2018-02-21T04:25:50.163Z,62.13
2018-02-21T04:28:21.190Z,63.20
2018-02-21T04:30:50.879Z,68.07
2018-02-21T04:33:36.506Z,56.35
2018-02-21T04:36:03.268Z,57.53
2018-02-21T04:38:31.003Z,54.72
2018-02-21T04:40:58.227Z,59.58
2018-02-21T04:43:31.758Z,64.85
2018-02-21T04:46:07.626Z,60.58
2018-02-21T04:48:35.107Z,62.20
2018-02-21T04:51:06.664Z,54.20
2018-02-21T04:53:39.685Z,58.85
2018-02-21T04:56:17.264Z,57.97
2018-02-21T04:59:00.318Z,50.60
2018-02-21T05:01:31.093Z,58.80
2018-02-21T05:04:04.334Z,62.85
2018-02-21T05:06:31.836Z,55.22
2018-02-21T05:09:07.103Z,54.55
2018-02-21T05:11:34.011Z,57.70
2018-02-21T05:14:01.701Z,63.70
2018-02-21T05:16:47.603Z,53.58
2018-02-21T05:19:20.210Z,62.60
2018-02-21T05:21:51.496Z,57.55
2018-02-21T05:24:19.637Z,56.67
2018-02-21T05:26:58.606Z,61.92
2018-02-21T05:29:32.747Z,57.15
2018-02-21T05:32:15.349Z,61.00
2018-02-21T05:34:48.961Z,52.40
2018-02-21T05:37:28.333Z,51.78
2018-02-21T05:39:58.519Z,54.88
2018-02-21T05:42:56.422Z,54.35
2018-02-21T05:45:24.051Z,49.30
2018-02-21T05:47:50.884Z,51.58
2018-02-21T05:50:21.919Z,51.80
2018-02-21T05:52:54.996Z,58.13
2018-02-21T05:55:27.377Z,53.45
2018-02-21T05:57:57.031Z,53.03
2018-02-21T06:00:26.358Z,55.03
2018-02-21T06:02:53.102Z,58.60
2018-02-21T06:05:20.278Z,56.55
2018-02-21T06:07:53.149Z,53.38
2018-02-21T06:10:24.184Z,52.65
2018-02-21T06:12:59.983Z,53.10
2018-02-21T06:15:28.540Z,50.80
2018-02-21T06:18:17.584Z,56.63
2018-02-21T06:20:45.603Z,51.00
2018-02-21T06:23:13.880Z,52.62
2018-02-21T06:25:40.608Z,52.17
2018-02-21T06:28:07.245Z,51.33
2018-02-21T06:30:33.945Z,53.60
2018-02-21T06:33:00.582Z,53.75
2018-02-21T06:35:27.218Z,52.33
2018-02-21T06:37:59.032Z,52.78
2018-02-21T06:40:25.784Z,52.88
2018-02-21T06:42:53.296Z,47.75
2018-02-21T06:45:20.724Z,51.60
2018-02-21T06:47:47.359Z,51.88
2018-02-21T06:50:14.034Z,57.55
2018-02-21T06:52:40.678Z,57.20
2018-02-21T06:55:07.375Z,51.35
2018-02-21T06:57:34.016Z,50.22
2018-02-21T07:00:00.655Z,55.55
2018-02-21T07:02:33.239Z,53.38
2018-02-21T07:04:59.908Z,59.95
2018-02-21T07:07:26.551Z,51.95
2018-02-21T07:09:53.312Z,60.55
2018-02-21T07:12:24.346Z,50.63
2018-02-21T07:14:54.951Z,49.38
2018-02-21T07:17:21.624Z,54.85
2018-02-21T07:19:48.284Z,50.47
2018-02-21T07:22:15.043Z,57.55
2018-02-21T07:24:41.725Z,49.03
2018-02-21T07:27:08.379Z,46.53
2018-02-21T07:29:35.088Z,50.70
2018-02-21T07:32:01.739Z,51.10
2018-02-21T07:34:28.422Z,47.85
2018-02-21T07:36:55.148Z,50.53
2018-02-21T07:39:21.885Z,52.88
2018-02-21T07:41:48.581Z,50.50
2018-02-21T07:44:15.975Z,47.95
2018-02-21T07:46:42.620Z,48.45
2018-02-21T07:49:09.268Z,44.13
2018-02-21T07:51:35.956Z,49.00
2018-02-21T07:54:02.603Z,46.80
2018-02-21T07:56:29.280Z,46.08
2018-02-21T07:58:55.979Z,42.85
2018-02-21T08:01:26.544Z,46.90
2018-02-21T08:03:53.417Z,45.17
2018-02-21T08:06:24.173Z,42.70
2018-02-21T08:08:50.871Z,45.75
2018-02-21T08:11:21.672Z,46.33
2018-02-21T08:13:48.356Z,52.83
2018-02-21T08:16:15.037Z,41.45
2018-02-21T08:18:41.837Z,43.75
2018-02-21T08:21:09.456Z,47.28
2018-02-21T08:23:36.111Z,48.22
2018-02-21T08:26:02.843Z,49.28
2018-02-21T08:28:29.564Z,41.22
2018-02-21T08:30:57.049Z,49.95
2018-02-21T08:33:23.703Z,43.05
2018-02-21T08:35:51.268Z,38.85
2018-02-21T08:38:17.937Z,46.17
2018-02-21T08:40:44.592Z,44.08
2018-02-21T08:43:11.252Z,45.70
2018-02-21T08:45:39.735Z,42.58
2018-02-21T08:48:06.383Z,44.15
2018-02-21T08:50:33.062Z,48.42
2018-02-21T08:53:00.340Z,45.47
2018-02-21T08:55:27.043Z,42.97
2018-02-21T08:57:53.725Z,46.47
2018-02-21T09:00:20.323Z,43.47
2018-02-21T09:02:46.962Z,52.17
2018-02-21T09:05:17.957Z,41.08
2018-02-21T09:07:44.596Z,45.83
2018-02-21T09:10:15.012Z,41.67
2018-02-21T09:12:41.684Z,43.15
2018-02-21T09:15:08.358Z,42.65
2018-02-21T09:17:35.066Z,41.70
2018-02-21T09:20:01.684Z,40.22
2018-02-21T09:22:32.736Z,43.67
2018-02-21T09:24:59.401Z,39.47
2018-02-21T09:27:26.887Z,39.85
2018-02-21T09:29:57.511Z,42.00
2018-02-21T09:32:24.159Z,44.90
2018-02-21T09:34:51.675Z,41.33
2018-02-21T09:37:22.013Z,43.95
2018-02-21T09:39:48.701Z,40.85
2018-02-21T09:42:15.339Z,42.40
2018-02-21T09:44:42.450Z,39.40
2018-02-21T09:47:09.157Z,38.05
2018-02-21T09:49:35.895Z,39.05
2018-02-21T09:52:02.629Z,40.12
2018-02-21T09:54:29.268Z,42.38
2018-02-21T09:56:55.915Z,38.15
2018-02-21T09:59:22.557Z,37.85
2018-02-21T10:01:49.661Z,39.92
2018-02-21T10:04:16.300Z,40.63
2018-02-21T10:06:42.956Z,39.83
2018-02-21T10:09:09.674Z,41.43
2018-02-21T10:11:36.337Z,41.30
2018-02-21T10:14:03.032Z,40.07
2018-02-21T10:16:29.696Z,41.57
2018-02-21T10:18:56.346Z,42.00
2018-02-21T10:21:23.931Z,40.57
2018-02-21T10:23:50.642Z,41.70
2018-02-21T10:26:17.325Z,42.97
2018-02-21T10:28:43.986Z,42.53
2018-02-21T10:31:10.626Z,42.07
2018-02-21T10:33:37.302Z,42.60
2018-02-21T10:36:04.143Z,40.63
2018-02-21T10:38:30.872Z,38.83
2018-02-21T10:40:57.526Z,39.50
2018-02-21T10:43:24.339Z,36.03
2018-02-21T10:45:56.800Z,38.10
2018-02-21T10:48:25.009Z,41.13
2018-02-21T10:50:51.779Z,37.47
2018-02-21T10:53:18.503Z,36.63
2018-02-21T10:55:46.855Z,39.55
2018-02-21T10:58:13.519Z,39.45
2018-02-21T11:00:47.682Z,35.90
2018-02-21T11:03:23.293Z,35.38
2018-02-21T11:05:50.075Z,37.63
2018-02-21T11:08:16.721Z,35.00
2018-02-21T11:10:44.064Z,30.30
2018-02-21T11:13:11.404Z,35.25
2018-02-21T11:15:42.758Z,36.38
2018-02-21T11:18:13.708Z,35.88
2018-02-21T11:20:44.409Z,34.47
2018-02-21T11:23:16.095Z,33.95
2018-02-21T11:25:43.108Z,30.70
2018-02-21T11:28:10.501Z,32.70
2018-02-21T11:30:38.966Z,35.17
2018-02-21T11:33:06.322Z,37.88
2018-02-21T11:35:39.630Z,28.92
2018-02-21T11:38:10.214Z,31.48
2018-02-21T11:40:37.080Z,29.67
2018-02-21T11:43:07.695Z,27.13
2018-02-21T11:45:35.853Z,28.17
2018-02-21T11:48:05.584Z,28.52
2018-02-21T11:50:39.238Z,30.52
2018-02-21T11:53:07.624Z,28.38
2018-02-21T11:55:34.422Z,27.80
2018-02-21T11:58:05.084Z,27.95
2018-02-21T12:00:32.871Z,32.78
2018-02-21T12:03:00.685Z,29.37
2018-02-21T12:05:27.359Z,30.77
2018-02-21T12:08:03.716Z,32.17
2018-02-21T12:10:32.273Z,30.08
2018-02-21T12:13:02.755Z,25.52
2018-02-21T12:15:32.937Z,29.23
2018-02-21T12:18:01.638Z,27.77
2018-02-21T12:20:28.333Z,27.65
2018-02-21T12:22:59.079Z,26.05
2018-02-21T12:25:27.623Z,28.95
2018-02-21T12:27:59.240Z,30.52
2018-02-21T12:30:25.963Z,26.70
2018-02-21T12:33:14.331Z,27.02
2018-02-21T12:35:46.268Z,27.05
2018-02-21T12:38:14.759Z,26.45
2018-02-21T12:40:49.308Z,26.37
2018-02-21T12:43:31.309Z,28.12
2018-02-21T12:46:05.089Z,22.65
2018-02-21T12:48:32.785Z,24.80
2018-02-21T12:51:06.042Z,21.37
2018-02-21T12:53:37.857Z,26.02
2018-02-21T12:56:09.057Z,25.48
2018-02-21T12:58:40.577Z,20.00
2018-02-21T13:01:08.912Z,23.73
2018-02-21T13:03:35.602Z,23.90
2018-02-21T13:06:02.281Z,22.27
2018-02-21T13:08:28.888Z,22.05
2018-02-21T13:10:55.598Z,19.40
2018-02-21T13:13:22.263Z,22.00
2018-02-21T13:15:48.899Z,21.67
2018-02-21T13:18:15.618Z,21.75
2018-02-21T13:20:42.204Z,20.70
2018-02-21T13:23:08.892Z,21.27
2018-02-21T13:25:35.528Z,19.90
2018-02-21T13:28:02.228Z,19.33
2018-02-21T13:30:29.443Z,17.67
2018-02-21T13:32:59.944Z,20.83
2018-02-21T13:35:30.772Z,20.27
2018-02-21T13:37:57.416Z,18.60
2018-02-21T13:40:24.999Z,17.00
2018-02-21T13:42:52.296Z,17.17
2018-02-21T13:45:18.933Z,20.67
2018-02-21T13:47:45.908Z,15.98
2018-02-21T13:50:12.557Z,19.20
2018-02-21T13:52:39.189Z,18.80
2018-02-21T13:55:05.872Z,19.17
2018-02-21T13:57:32.560Z,21.87
2018-02-21T13:59:59.200Z,24.73
2018-02-21T14:02:25.853Z,24.70
2018-02-21T14:04:52.544Z,23.00
2018-02-21T14:07:19.234Z,25.85
2018-02-21T14:09:45.880Z,23.90
2018-02-21T14:12:12.591Z,23.27
2018-02-21T14:14:39.246Z,26.42
2018-02-21T14:17:05.871Z,25.83
2018-02-21T14:19:33.100Z,28.98
2018-02-21T14:21:59.816Z,22.15
2018-02-21T14:24:26.451Z,24.67
2018-02-21T14:26:53.121Z,24.08
2018-02-21T14:29:19.738Z,27.02
2018-02-21T14:31:50.961Z,26.25
2018-02-21T14:34:17.600Z,21.60
2018-02-21T14:36:44.340Z,23.35
2018-02-21T14:39:10.961Z,27.40
2018-02-21T14:41:37.607Z,24.67
2018-02-21T14:44:04.220Z,24.25
2018-02-21T14:46:30.857Z,24.25
2018-02-21T14:48:57.585Z,21.35
2018-02-21T14:51:24.222Z,23.15
2018-02-21T14:53:50.888Z,24.60
2018-02-21T14:56:17.526Z,23.42
2018-02-21T14:58:44.170Z,28.25
2018-02-21T15:01:10.873Z,24.00
2018-02-21T15:03:38.226Z,23.62
2018-02-21T15:06:04.874Z,23.23
2018-02-21T15:08:35.960Z,26.55
2018-02-21T15:11:02.629Z,26.87
2018-02-21T15:13:30.242Z,25.20
2018-02-21T15:15:56.935Z,24.60
2018-02-21T15:18:28.134Z,25.02
2018-02-21T15:20:58.861Z,25.73
2018-02-21T15:23:25.996Z,24.92
2018-02-21T15:25:52.635Z,22.50
2018-02-21T15:28:20.174Z,24.17
2018-02-21T15:30:47.015Z,25.35
2018-02-21T15:33:13.682Z,25.60
2018-02-21T15:35:40.322Z,24.08
2018-02-21T15:38:07.111Z,26.90
2018-02-21T15:40:33.780Z,26.80
2018-02-21T15:43:00.452Z,25.85
2018-02-21T15:45:27.143Z,24.33
2018-02-21T15:47:53.894Z,25.48
2018-02-21T15:50:20.630Z,22.62
2018-02-21T15:52:47.981Z,23.80
2018-02-21T15:55:14.645Z,29.42
2018-02-21T15:57:42.281Z,27.30
2018-02-21T16:00:08.959Z,26.40
2018-02-21T16:02:35.663Z,24.00
2018-02-21T16:05:02.350Z,22.92
2018-02-21T16:07:29.009Z,24.12
2018-02-21T16:09:55.681Z,24.10
2018-02-21T16:12:22.341Z,23.65
2018-02-21T16:14:49.902Z,24.42
2018-02-21T16:17:16.570Z,22.65
2018-02-21T16:19:43.440Z,21.52
2018-02-21T16:22:10.118Z,21.92
2018-02-21T16:24:36.810Z,18.85
2018-02-21T16:27:07.659Z,20.85
2018-02-21T16:29:34.430Z,22.80
2018-02-21T16:32:01.133Z,20.90
2018-02-21T16:34:27.826Z,25.15
2018-02-21T16:36:54.624Z,23.10
2018-02-21T16:39:21.333Z,20.10
2018-02-21T16:41:48.008Z,21.73
2018-02-21T16:44:14.633Z,23.35
2018-02-21T16:46:45.063Z,20.65
2018-02-21T16:49:11.724Z,21.15
2018-02-21T16:51:38.440Z,21.62
2018-02-21T16:54:12.879Z,22.80
2018-02-21T16:56:39.596Z,23.58
2018-02-21T16:59:06.320Z,26.25
2018-02-21T17:01:33.006Z,23.90
2018-02-21T17:03:59.695Z,19.77
2018-02-21T17:06:26.333Z,19.87
2018-02-21T17:08:53.504Z,18.23
2018-02-21T17:11:21.111Z,18.25
2018-02-21T17:13:47.856Z,19.27
2018-02-21T17:16:14.501Z,22.77
2018-02-21T17:18:41.228Z,18.92
2018-02-21T17:21:12.433Z,20.10
2018-02-21T17:23:39.068Z,17.45
2018-02-21T17:26:05.756Z,21.10
2018-02-21T17:28:36.415Z,21.05
2018-02-21T17:31:03.959Z,23.77
2018-02-21T17:33:30.600Z,19.80
2018-02-21T17:35:57.269Z,19.60
2018-02-21T17:38:24.046Z,20.95
2018-02-21T17:41:00.874Z,19.35
2018-02-21T17:43:27.577Z,16.25
2018-02-21T17:45:54.305Z,17.95
2018-02-21T17:48:20.951Z,17.52
2018-02-21T17:50:47.736Z,22.67
2018-02-21T17:53:15.285Z,20.40
2018-02-21T17:55:43.232Z,21.98
2018-02-21T17:58:10.768Z,19.65
2018-02-21T18:00:41.651Z,18.23
2018-02-21T18:03:18.068Z,20.25
2018-02-21T18:05:51.145Z,21.67
2018-02-21T18:08:26.357Z,22.50
2018-02-21T18:10:53.555Z,23.33
2018-02-21T18:13:20.262Z,19.65
2018-02-21T18:15:51.027Z,20.23
2018-02-21T18:18:19.844Z,18.00
2018-02-21T18:20:46.564Z,19.90
2018-02-21T18:23:14.080Z,18.25
2018-02-21T18:25:40.842Z,21.85
2018-02-21T18:28:14.398Z,17.00
2018-02-21T18:30:41.288Z,17.30
2018-02-21T18:33:08.712Z,19.87
2018-02-21T18:35:36.087Z,21.17
2018-02-21T18:38:03.465Z,32.05
2018-02-21T18:40:30.185Z,30.23
2018-02-21T18:42:58.554Z,26.33
2018-02-21T18:45:25.366Z,20.08
2018-02-21T18:47:52.604Z,20.50
2018-02-21T18:50:19.517Z,18.90
2018-02-21T18:52:50.216Z,17.85
2018-02-21T18:55:22.685Z,16.37
2018-02-21T18:57:51.296Z,20.62
2018-02-21T19:00:19.369Z,21.77
2018-02-21T19:02:52.217Z,19.70
2018-02-21T19:05:29.867Z,19.25
2018-02-21T19:08:04.415Z,19.27
2018-02-21T19:10:32.858Z,19.98
2018-02-21T19:13:07.075Z,19.62
2018-02-21T19:15:37.640Z,23.12
2018-02-21T19:18:09.315Z,21.17
2018-02-21T19:20:40.448Z,18.37
2018-02-21T19:23:08.116Z,17.02
2018-02-21T19:25:35.750Z,17.30
2018-02-21T19:28:06.088Z,17.08
2018-02-21T19:30:34.044Z,19.73
2018-02-21T19:33:02.603Z,20.12
2018-02-21T19:35:35.216Z,17.50
2018-02-21T19:38:03.815Z,18.02
2018-02-21T19:40:30.665Z,19.20
2018-02-21T19:42:58.462Z,19.55
2018-02-21T19:45:36.951Z,22.33
2018-02-21T19:48:04.334Z,20.52
2018-02-21T19:50:39.605Z,19.75
2018-02-21T19:53:14.728Z,15.60
2018-02-21T19:55:47.110Z,19.87
2018-02-21T19:58:14.832Z,21.10
2018-02-21T20:00:42.412Z,21.50
2018-02-21T20:03:16.574Z,18.00
2018-02-21T20:05:44.641Z,18.05
2018-02-21T20:08:17.059Z,20.48
2018-02-21T20:10:53.031Z,21.62
2018-02-21T20:13:21.147Z,18.33
2018-02-21T20:15:49.202Z,18.75
2018-02-21T20:18:23.130Z,17.23
2018-02-21T20:20:53.957Z,18.02
2018-02-21T20:23:29.983Z,19.23
2018-02-21T20:26:01.437Z,21.87
2018-02-21T20:28:36.330Z,20.20
2018-02-21T20:31:05.771Z,18.25
2018-02-21T20:33:33.093Z,25.95
2018-02-21T20:36:01.010Z,36.67
2018-02-21T20:38:30.812Z,20.35
2018-02-21T20:41:06.051Z,19.35
2018-02-21T20:43:37.627Z,20.65
2018-02-21T20:46:06.013Z,23.17
2018-02-21T20:48:35.853Z,18.40
2018-02-21T20:51:09.001Z,20.92
2018-02-21T20:53:41.640Z,23.08
2018-02-21T20:56:13.100Z,20.70
2018-02-21T20:58:44.685Z,18.08
2018-02-21T21:01:12.557Z,20.50
2018-02-21T21:03:43.786Z,20.50
2018-02-21T21:06:16.136Z,19.87
2018-02-21T21:08:45.422Z,22.02
2018-02-21T21:11:18.108Z,20.60
2018-02-21T21:13:51.035Z,22.60
2018-02-21T21:16:21.182Z,21.95
2018-02-21T21:18:48.556Z,20.73
2018-02-21T21:21:20.884Z,18.42
2018-02-21T21:23:48.853Z,18.85
2018-02-21T21:26:16.785Z,19.60
2018-02-21T21:28:50.021Z,20.80
2018-02-21T21:31:23.869Z,22.30
2018-02-21T21:33:50.731Z,25.45
2018-02-21T21:36:22.101Z,31.42
2018-02-21T21:38:49.532Z,33.35
2018-02-21T21:41:35.548Z,23.38
2018-02-21T21:44:08.419Z,23.42
2018-02-21T21:46:45.227Z,21.27
2018-02-21T21:49:19.428Z,23.27
2018-02-21T21:51:46.649Z,22.58
2018-02-21T21:54:14.059Z,20.58
2018-02-21T21:56:41.339Z,20.70
2018-02-21T21:59:08.685Z,23.40
2018-02-21T22:01:36.485Z,22.65
2018-02-21T22:04:15.512Z,25.27
2018-02-21T22:06:50.515Z,21.98
2018-02-21T22:09:18.140Z,25.42
2018-02-21T22:11:50.763Z,23.30
2018-02-21T22:14:22.264Z,20.98
2018-02-21T22:16:50.404Z,21.00
2018-02-21T22:19:29.416Z,19.48
2018-02-21T22:21:57.089Z,23.12
2018-02-21T22:24:36.571Z,19.35
2018-02-21T22:27:07.500Z,20.10
2018-02-21T22:29:43.522Z,19.62
2018-02-21T22:32:11.976Z,19.98
2018-02-21T22:34:42.485Z,19.42
2018-02-21T22:37:15.516Z,22.48
2018-02-21T22:40:02.680Z,20.25
2018-02-21T22:42:43.410Z,23.08
2018-02-21T22:45:12.707Z,21.48
2018-02-21T22:47:40.333Z,18.50
2018-02-21T22:50:16.908Z,18.55
2018-02-21T22:52:47.840Z,19.83
2018-02-21T22:55:24.664Z,21.10
2018-02-21T22:57:55.280Z,21.62
2018-02-21T23:00:23.294Z,19.00
2018-02-21T23:02:50.512Z,18.62
2018-02-21T23:05:23.234Z,21.25
2018-02-21T23:07:57.652Z,23.02
2018-02-21T23:10:29.154Z,21.77
2018-02-21T23:12:56.470Z,20.58
2018-02-21T23:15:26.104Z,17.00
2018-02-21T23:27:41.849Z,16.25
2018-02-21T23:30:17.014Z,18.92
2018-02-21T23:32:59.264Z,20.15
2018-02-21T23:35:43.669Z,20.42
2018-02-21T23:38:14.480Z,16.33
2018-02-21T23:40:41.437Z,19.70
2018-02-21T23:43:12.635Z,19.70
2018-02-21T23:45:43.989Z,22.17
2018-02-21T23:48:13.592Z,20.30
2018-02-21T23:50:40.283Z,21.55
2018-02-21T23:53:11.363Z,25.83
2018-02-21T23:55:45.252Z,21.55
2018-02-21T23:58:15.928Z,19.20
